PWSweather.com
Personal Weather Stations
Station Observations
IONTARIO88
Lincoln, ON L0R

Lincoln, ON L0R

Lat: 43.1763563, Lon: -79.4719525

Elevation: 297

Station Type: Davis Vantage Pro 2 Plus

http://www.beamsvillewx.ca

Latest ConditionsUpdated 12:40:01 PM EDT Wednesday, Jul 1, 2015
Currently Today's Max Today's Min Today's Average
Temperature 74.3°F23.5°C 74.3°F23.5°C 58.5°F14.7°C 63.4°F17.4°C
Dew Point 60.8°F16.0°C 62.6°F17.0°C 57.1°F13.9°C 59.6°F15.3°C
Winds 7.5 mph NNW12.1 kmh NNW 10.0 mph WNW16.1 kmh WNW - 2.3 mph 3.7 kmh
Wind Gusts 9.0 mph14.5 kmh 15.0 mph24.1 kmh - -
Humidity 63% 96% 63% 88%
Pressure 29.77 in1008.1 mb 29.77 in1008.1 mb 29.70 in1005.8 mb -
Hour Temp Dew Point Humidity Winds Wind Gusts Pressure Precip Precip Rate Daily Precip Total
12:40 PM 74.3°F23.5°C 60.8°F16.0°C 63% 7.5 mph NNW12.1 kmh NNW 9.0 mph14.5 kmh 29.77 in1008.1 mb - 0.00 in0.0 mm 0.00 in0.0 mm
12:30 PM 74.3°F23.5°C 61.3°F16.3°C 64% 8.5 mph NW13.7 kmh NW 13.0 mph20.9 kmh 29.77 in1008.1 mb - 0.00 in0.0 mm 0.00 in0.0 mm
12:20 PM 73.8°F23.2°C 61.3°F16.3°C 65% 4.7 mph NW7.6 kmh NW 9.0 mph14.5 kmh 29.77 in1008.1 mb - 0.00 in0.0 mm 0.00 in0.0 mm
12:10 PM 72.5°F22.5°C 61.7°F16.5°C 69% 5.6 mph W9.0 kmh W 11.0 mph17.7 kmh 29.77 in1008.1 mb - 0.00 in0.0 mm 0.00 in0.0 mm
12:00 PM 70.9°F21.6°C 61.1°F16.2°C 71% 7.3 mph WNW11.7 kmh WNW 9.0 mph14.5 kmh 29.77 in1008.1 mb - 0.00 in0.0 mm 0.00 in0.0 mm
11:50 AM 71.3°F21.8°C 61.0°F16.1°C 70% 6.5 mph NW10.5 kmh NW 13.0 mph20.9 kmh 29.77 in1008.1 mb - 0.00 in0.0 mm 0.00 in0.0 mm
11:40 AM 71.1°F21.7°C 61.6°F16.4°C 72% 5.2 mph NW8.4 kmh NW 8.0 mph12.9 kmh 29.76 in1007.8 mb - 0.00 in0.0 mm 0.00 in0.0 mm
11:30 AM 70.5°F21.4°C 61.4°F16.3°C 73% 5.7 mph WNW9.2 kmh WNW 8.0 mph12.9 kmh 29.76 in1007.8 mb - 0.00 in0.0 mm 0.00 in0.0 mm
11:20 AM 71.2°F21.8°C 61.3°F16.3°C 71% 5.3 mph NW8.5 kmh NW 9.0 mph14.5 kmh 29.76 in1007.8 mb - 0.00 in0.0 mm 0.00 in0.0 mm
11:10 AM 71.6°F22.0°C 61.3°F16.3°C 70% 4.6 mph NW7.4 kmh NW 11.0 mph17.7 kmh 29.75 in1007.5 mb - 0.00 in0.0 mm 0.00 in0.0 mm
11:00 AM 71.7°F22.1°C 62.6°F17.0°C 73% 3.6 mph NW5.8 kmh NW 11.0 mph17.7 kmh 29.75 in1007.5 mb - 0.00 in0.0 mm 0.00 in0.0 mm
10:50 AM 70.9°F21.6°C 61.8°F16.6°C 73% 3.3 mph NW5.3 kmh NW 8.0 mph12.9 kmh 29.74 in1007.1 mb - 0.00 in0.0 mm 0.00 in0.0 mm
10:40 AM 70.5°F21.4°C 61.4°F16.3°C 73% 4.7 mph WSW7.6 kmh WSW 9.0 mph14.5 kmh 29.74 in1007.1 mb - 0.00 in0.0 mm 0.00 in0.0 mm
10:30 AM 70.5°F21.4°C 61.8°F16.6°C 74% 2.3 mph WNW3.7 kmh WNW 8.0 mph12.9 kmh 29.74 in1007.1 mb - 0.00 in0.0 mm 0.00 in0.0 mm
10:20 AM 69.3°F20.7°C 61.0°F16.1°C 75% 2.9 mph NW4.7 kmh NW 3.0 mph4.8 kmh 29.74 in1007.1 mb - 0.00 in0.0 mm 0.00 in0.0 mm
10:10 AM 69.1°F20.6°C 61.6°F16.4°C 77% 5.0 mph NW8.0 kmh NW 8.0 mph12.9 kmh 29.73 in1006.8 mb - 0.00 in0.0 mm 0.00 in0.0 mm
10:00 AM 68.8°F20.4°C 61.7°F16.5°C 78% 5.0 mph N8.0 kmh N 11.0 mph17.7 kmh 29.73 in1006.8 mb - 0.00 in0.0 mm 0.00 in0.0 mm
09:50 AM 68.3°F20.2°C 61.9°F16.6°C 80% 3.0 mph N4.8 kmh N 7.0 mph11.3 kmh 29.73 in1006.8 mb - 0.00 in0.0 mm 0.00 in0.0 mm
09:40 AM 67.8°F19.9°C 61.8°F16.6°C 81% 6.2 mph W10.0 kmh W 9.0 mph14.5 kmh 29.73 in1006.8 mb - 0.00 in0.0 mm 0.00 in0.0 mm
09:30 AM 67.5°F19.7°C 61.5°F16.4°C 81% 10.0 mph WNW16.1 kmh WNW 15.0 mph24.1 kmh 29.73 in1006.8 mb - 0.00 in0.0 mm 0.00 in0.0 mm
09:20 AM 66.9°F19.4°C 61.5°F16.4°C 83% 6.0 mph W9.7 kmh W 10.0 mph16.1 kmh 29.73 in1006.8 mb - 0.00 in0.0 mm 0.00 in0.0 mm
09:10 AM 66.5°F19.2°C 61.5°F16.4°C 84% 3.9 mph W6.3 kmh W 9.0 mph14.5 kmh 29.73 in1006.8 mb - 0.00 in0.0 mm 0.00 in0.0 mm
09:00 AM 66.9°F19.4°C 61.6°F16.4°C 83% 5.9 mph W9.5 kmh W 11.0 mph17.7 kmh 29.73 in1006.8 mb - 0.00 in0.0 mm 0.00 in0.0 mm
08:50 AM 66.7°F19.3°C 62.0°F16.7°C 85% 6.4 mph WNW10.3 kmh WNW 8.0 mph12.9 kmh 29.73 in1006.8 mb - 0.00 in0.0 mm 0.00 in0.0 mm
08:40 AM 66.4°F19.1°C 62.5°F16.9°C 87% 5.5 mph WNW8.9 kmh WNW 10.0 mph16.1 kmh 29.73 in1006.8 mb - 0.00 in0.0 mm 0.00 in0.0 mm
08:30 AM 65.5°F18.6°C 61.9°F16.6°C 88% 2.2 mph W3.5 kmh W 5.0 mph8.0 kmh 29.73 in1006.8 mb - 0.00 in0.0 mm 0.00 in0.0 mm
08:20 AM 65.3°F18.5°C 61.7°F16.5°C 88% 4.1 mph WSW6.6 kmh WSW 5.0 mph8.0 kmh 29.73 in1006.8 mb - 0.00 in0.0 mm 0.00 in0.0 mm
08:10 AM 65.2°F18.4°C 61.6°F16.4°C 88% 5.6 mph W9.0 kmh W 8.0 mph12.9 kmh 29.72 in1006.4 mb - 0.00 in0.0 mm 0.00 in0.0 mm
08:00 AM 64.8°F18.2°C 61.8°F16.6°C 90% 4.9 mph WNW7.9 kmh WNW 7.0 mph11.3 kmh 29.72 in1006.4 mb - 0.00 in0.0 mm 0.00 in0.0 mm
07:50 AM 64.2°F17.9°C 61.5°F16.4°C 91% 3.7 mph WNW6.0 kmh WNW 8.0 mph12.9 kmh 29.72 in1006.4 mb - 0.00 in0.0 mm 0.00 in0.0 mm
07:40 AM 63.7°F17.6°C 61.3°F16.3°C 92% 3.3 mph WSW5.3 kmh WSW 5.0 mph8.0 kmh 29.72 in1006.4 mb - 0.00 in0.0 mm 0.00 in0.0 mm
07:30 AM 63.3°F17.4°C 61.3°F16.3°C 93% 5.4 mph N8.7 kmh N 9.0 mph14.5 kmh 29.72 in1006.4 mb - 0.00 in0.0 mm 0.00 in0.0 mm
07:20 AM 63.1°F17.3°C 61.3°F16.3°C 94% 2.7 mph W4.3 kmh W 3.0 mph4.8 kmh 29.72 in1006.4 mb - 0.00 in0.0 mm 0.00 in0.0 mm
07:10 AM 63.0°F17.2°C 61.5°F16.4°C 95% 3.6 mph W5.8 kmh W 5.0 mph8.0 kmh 29.72 in1006.4 mb - 0.00 in0.0 mm 0.00 in0.0 mm
07:00 AM 62.9°F17.2°C 61.4°F16.3°C 95% 0.1 mph W0.2 kmh W 3.0 mph4.8 kmh 29.72 in1006.4 mb - 0.00 in0.0 mm 0.00 in0.0 mm
06:50 AM 62.6°F17.0°C 61.1°F16.2°C 95% 2.3 mph W3.7 kmh W 3.0 mph4.8 kmh 29.71 in1006.1 mb - 0.00 in0.0 mm 0.00 in0.0 mm
06:40 AM 62.4°F16.9°C 61.2°F16.2°C 96% 3.5 mph N5.6 kmh N 5.0 mph8.0 kmh 29.71 in1006.1 mb - 0.00 in0.0 mm 0.00 in0.0 mm
06:30 AM 61.9°F16.6°C 60.8°F16.0°C 96% 1.5 mph N2.4 kmh N 2.0 mph3.2 kmh 29.71 in1006.1 mb - 0.00 in0.0 mm 0.00 in0.0 mm
06:20 AM 60.6°F15.9°C 59.5°F15.3°C 96% 0.3 mph N0.5 kmh N 2.0 mph3.2 kmh 29.71 in1006.1 mb - 0.00 in0.0 mm 0.00 in0.0 mm
06:10 AM 59.8°F15.4°C 58.4°F14.7°C 95% Calm Calm -- 29.71 in1006.1 mb - 0.00 in0.0 mm 0.00 in0.0 mm
06:00 AM 59.5°F15.3°C 58.0°F14.4°C 95% Calm Calm -- 29.71 in1006.1 mb - 0.00 in0.0 mm 0.00 in0.0 mm
05:50 AM 59.3°F15.2°C 57.9°F14.4°C 95% Calm Calm -- 29.71 in1006.1 mb - 0.00 in0.0 mm 0.00 in0.0 mm
05:40 AM 59.2°F15.1°C 57.8°F14.3°C 95% Calm Calm -- 29.71 in1006.1 mb - 0.00 in0.0 mm 0.00 in0.0 mm
05:30 AM 59.0°F15.0°C 57.6°F14.2°C 95% Calm Calm -- 29.71 in1006.1 mb - 0.00 in0.0 mm 0.00 in0.0 mm
05:20 AM 58.9°F14.9°C 57.5°F14.2°C 95% Calm Calm -- 29.71 in1006.1 mb - 0.00 in0.0 mm 0.00 in0.0 mm
05:10 AM 58.8°F14.9°C 57.4°F14.1°C 95% Calm Calm -- 29.70 in1005.8 mb - 0.00 in0.0 mm 0.00 in0.0 mm
05:00 AM 58.8°F14.9°C 57.4°F14.1°C 95% Calm Calm -- 29.70 in1005.8 mb - 0.00 in0.0 mm 0.00 in0.0 mm
04:50 AM 58.8°F14.9°C 57.4°F14.1°C 95% Calm Calm -- 29.70 in1005.8 mb - 0.00 in0.0 mm 0.00 in0.0 mm
04:40 AM 58.6°F14.8°C 57.2°F14.0°C 95% Calm Calm -- 29.70 in1005.8 mb - 0.00 in0.0 mm 0.00 in0.0 mm
04:30 AM 58.5°F14.7°C 57.1°F13.9°C 95% Calm Calm -- 29.70 in1005.8 mb - 0.00 in0.0 mm 0.00 in0.0 mm
04:20 AM 58.5°F14.7°C 57.1°F13.9°C 95% Calm Calm -- 29.70 in1005.8 mb - 0.00 in0.0 mm 0.00 in0.0 mm
04:10 AM 58.6°F14.8°C 57.2°F14.0°C 95% Calm Calm -- 29.70 in1005.8 mb - 0.00 in0.0 mm 0.00 in0.0 mm
04:00 AM 58.7°F14.8°C 57.3°F14.1°C 95% Calm Calm -- 29.70 in1005.8 mb - 0.00 in0.0 mm 0.00 in0.0 mm
03:50 AM 58.8°F14.9°C 57.4°F14.1°C 95% Calm Calm -- 29.71 in1006.1 mb - 0.00 in0.0 mm 0.00 in0.0 mm
03:40 AM 59.0°F15.0°C 57.6°F14.2°C 95% Calm Calm -- 29.70 in1005.8 mb - 0.00 in0.0 mm 0.00 in0.0 mm
03:30 AM 59.1°F15.1°C 57.7°F14.3°C 95% Calm Calm -- 29.70 in1005.8 mb - 0.00 in0.0 mm 0.00 in0.0 mm
03:20 AM 59.1°F15.1°C 57.7°F14.3°C 95% Calm Calm -- 29.71 in1006.1 mb - 0.00 in0.0 mm 0.00 in0.0 mm
03:10 AM 59.0°F15.0°C 57.6°F14.2°C 95% Calm Calm -- 29.71 in1006.1 mb - 0.00 in0.0 mm 0.00 in0.0 mm
03:00 AM 59.0°F15.0°C 57.5°F14.2°C 95% Calm Calm -- 29.71 in1006.1 mb - 0.00 in0.0 mm 0.00 in0.0 mm
02:50 AM 58.9°F14.9°C 57.5°F14.2°C 95% Calm Calm -- 29.72 in1006.4 mb - 0.00 in0.0 mm 0.00 in0.0 mm
02:40 AM 59.0°F15.0°C 57.6°F14.2°C 95% Calm Calm -- 29.72 in1006.4 mb - 0.00 in0.0 mm 0.00 in0.0 mm
02:30 AM 59.1°F15.1°C 57.7°F14.3°C 95% Calm Calm -- 29.72 in1006.4 mb - 0.00 in0.0 mm 0.00 in0.0 mm
02:20 AM 59.2°F15.1°C 57.8°F14.3°C 95% Calm Calm -- 29.73 in1006.8 mb - 0.00 in0.0 mm 0.00 in0.0 mm
02:10 AM 59.1°F15.1°C 57.7°F14.3°C 95% Calm Calm -- 29.73 in1006.8 mb - 0.00 in0.0 mm 0.00 in0.0 mm
02:00 AM 59.1°F15.1°C 57.7°F14.3°C 95% Calm Calm -- 29.73 in1006.8 mb - 0.00 in0.0 mm 0.00 in0.0 mm
01:50 AM 59.1°F15.1°C 57.7°F14.3°C 95% Calm Calm -- 29.73 in1006.8 mb - 0.00 in0.0 mm 0.00 in0.0 mm
01:40 AM 59.2°F15.1°C 57.8°F14.3°C 95% Calm Calm -- 29.74 in1007.1 mb - 0.00 in0.0 mm 0.00 in0.0 mm
01:30 AM 59.3°F15.2°C 57.9°F14.4°C 95% Calm Calm -- 29.74 in1007.1 mb - 0.00 in0.0 mm 0.00 in0.0 mm
01:20 AM 59.3°F15.2°C 57.9°F14.4°C 95% Calm Calm -- 29.73 in1006.8 mb - 0.00 in0.0 mm 0.00 in0.0 mm
01:10 AM 59.3°F15.2°C 57.9°F14.4°C 95% Calm Calm -- 29.74 in1007.1 mb - 0.00 in0.0 mm 0.00 in0.0 mm
01:00 AM 59.2°F15.1°C 57.8°F14.3°C 95% Calm Calm -- 29.74 in1007.1 mb - 0.00 in0.0 mm 0.00 in0.0 mm
12:50 AM 59.2°F15.1°C 57.8°F14.3°C 95% Calm Calm -- 29.74 in1007.1 mb - 0.00 in0.0 mm 0.00 in0.0 mm
12:40 AM 59.2°F15.1°C 57.8°F14.3°C 95% Calm Calm -- 29.74 in1007.1 mb - 0.00 in0.0 mm 0.00 in0.0 mm
12:30 AM 59.3°F15.2°C 57.9°F14.4°C 95% Calm Calm -- 29.74 in1007.1 mb - 0.00 in0.0 mm 0.00 in0.0 mm
12:20 AM 59.3°F15.2°C 57.9°F14.4°C 95% Calm Calm -- 29.74 in1007.1 mb - 0.00 in0.0 mm 0.00 in0.0 mm
12:10 AM 59.4°F15.2°C 58.0°F14.4°C 95% Calm Calm -- 29.74 in1007.1 mb - 0.00 in0.0 mm 0.00 in0.0 mm
12:00 AM 59.3°F15.2°C 57.9°F14.4°C 95% Calm Calm -- 29.74 in1007.1 mb - 0.00 in0.0 mm 0.00 in0.0 mm